Latest Weather Observations for St Kilda Harbour RMYS

IDV60801

Issued at 2:35 pm EST Tuesday 2 September 2014 (issued every 30 minutes, with the page automatically refreshed every 10 minutes)

About weather observations | Map of weather stations | Latest weather observations for VIC | Other Formats
Station Details ID: 086220 Name: ST KILDA HARBOUR - RMYS Lat: -37.86 Lon: 144.96 Height: 6.4 m
Data from the previous 72 hours. | See also: Recent months for locations in Victoria
Date/Time
EST
Temp
°C
App
Temp
°C
Dew
Point
Rel
Hum
%
Delta-T
°C
Wind Press
QNH
hPa
Press
MSL
hPa
Rain
since 9 am
mm
Dir
 
Spd
km/h
Gust
km/h
Spd
kts
Gust
kts
02/02:30pm - - - - - S 37 43 20 23 - - -
02/02:00pm - - - - - S 37 43 20 23 - - -
02/01:30pm - - - - - S 37 44 20 24 - - -
02/01:00pm - - - - - S 41 48 22 26 - - -
02/12:30pm - - - - - SSW 44 52 24 28 - - -
02/12:00pm - - - - - SSW 43 54 23 29 - - -
02/11:30am - - - - - SSW 43 48 23 26 - - -
02/11:00am - - - - - S 39 46 21 25 - - -
02/10:30am - - - - - SSW 35 41 19 22 - - -
02/10:00am - - - - - SW 32 37 17 20 - - -
02/09:30am - - - - - SW 28 39 15 21 - - -
02/09:00am - - - - - WSW 32 39 17 21 - - -
02/08:30am - - - - - SW 33 41 18 22 - - -
02/08:00am - - - - - WSW 28 33 15 18 - - -
02/07:30am - - - - - WSW 35 43 19 23 - - -
02/07:00am - - - - - WSW 33 41 18 22 - - -
02/06:30am - - - - - WSW 28 32 15 17 - - -
02/06:00am - - - - - WSW 24 30 13 16 - - -
02/05:30am - - - - - WSW 24 32 13 17 - - -
02/05:00am - - - - - WSW 33 37 18 20 - - -
02/04:30am - - - - - WSW 37 43 20 23 - - -
02/04:29am - - - - - WSW 37 43 20 23 - - -
02/04:00am - - - - - SSW 22 30 12 16 - - -
02/03:30am - - - - - WSW 30 35 16 19 - - -
02/03:00am - - - - - W 26 32 14 17 - - -
02/02:30am - - - - - W 28 33 15 18 - - -
02/02:00am - - - - - WSW 30 39 16 21 - - -
02/01:30am - - - - - SW 24 35 13 19 - - -
02/01:00am - - - - - WSW 32 39 17 21 - - -
02/12:30am - - - - - WSW 30 35 16 19 - - -
02/12:00am - - - - - W 28 32 15 17 - - -
 
Date/Time
EST
Temp
°C
App
Temp
°C
Dew
Point
Rel
Hum
%
Delta-T
°C
Wind Press
QNH
hPa
Press
MSL
hPa
Rain
since 9 am
mm
Dir
 
Spd
km/h
Gust
km/h
Spd
kts
Gust
kts
01/11:30pm - - - - - WSW 22 26 12 14 - - -
01/11:00pm - - - - - W 20 26 11 14 - - -
01/10:30pm - - - - - W 19 22 10 12 - - -
01/10:00pm - - - - - WNW 13 19 7 10 - - -
01/09:30pm - - - - - NW 17 20 9 11 - - -
01/09:00pm - - - - - NW 17 22 9 12 - - -
01/08:30pm - - - - - WNW 19 22 10 12 - - -
01/08:00pm - - - - - W 20 24 11 13 - - -
01/07:30pm - - - - - W 17 22 9 12 - - -
01/07:00pm - - - - - WSW 22 26 12 14 - - -
01/06:35pm - - - - - W 30 37 16 20 - - -
01/06:30pm - - - - - WNW 9 11 5 6 - - -
01/06:00pm - - - - - WSW 7 11 4 6 - - -
01/05:30pm - - - - - SSW 19 22 10 12 - - -
01/05:00pm - - - - - NW 11 13 6 7 - - -
01/04:30pm - - - - - NW 11 13 6 7 - - -
01/04:00pm - - - - - WNW 11 13 6 7 - - -
01/03:30pm - - - - - W 11 15 6 8 - - -
01/03:00pm - - - - - NW 9 11 5 6 - - -
01/02:30pm - - - - - WSW 22 30 12 16 - - -
01/02:16pm - - - - - WSW 30 33 16 18 - - -
01/02:00pm - - - - - N 11 15 6 8 - - -
01/01:30pm - - - - - N 15 20 8 11 - - -
01/01:00pm - - - - - N 13 22 7 12 - - -
01/12:30pm - - - - - N 15 22 8 12 - - -
01/12:00pm - - - - - N 17 22 9 12 - - -
01/11:30am - - - - - NNW 15 20 8 11 - - -
01/11:00am - - - - - NW 19 26 10 14 - - -
01/10:30am - - - - - NNW 24 35 13 19 - - -
01/10:00am - - - - - NNW 26 37 14 20 - - -
01/09:30am - - - - - NNW 33 50 18 27 - - -
01/09:00am - - - - - N 30 43 16 23 - - -
01/08:30am - - - - - N 30 41 16 22 - - -
01/08:00am - - - - - N 32 50 17 27 - - -
01/07:30am - - - - - N 37 57 20 31 - - -
01/07:11am - - - - - N 33 59 18 32 - - -
01/07:00am - - - - - N 32 50 17 27 - - -
01/06:30am - - - - - N 32 50 17 27 - - -
01/06:00am - - - - - N 35 61 19 33 - - -
01/05:54am - - - - - N 32 61 17 33 - - -
01/05:30am - - - - - NNW 35 52 19 28 - - -
01/05:27am - - - - - NNW 33 52 18 28 - - -
01/05:00am - - - - - NNW 22 32 12 17 - - -
01/04:30am - - - - - N 26 35 14 19 - - -
01/04:00am - - - - - N 39 61 21 33 - - -
01/03:30am - - - - - N 39 74 21 40 - - -
01/03:00am - - - - - N 33 57 18 31 - - -
01/02:30am - - - - - N 30 50 16 27 - - -
01/02:00am - - - - - N 39 59 21 32 - - -
01/01:30am - - - - - N 33 54 18 29 - - -
01/01:23am - - - - - N 30 54 16 29 - - -
01/01:00am - - - - - N 20 28 11 15 - - -
01/12:30am - - - - - N 33 48 18 26 - - -
01/12:00am - - - - - N 28 44 15 24 - - -
 
Date/Time
EST
Temp
°C
App
Temp
°C
Dew
Point
Rel
Hum
%
Delta-T
°C
Wind Press
QNH
hPa
Press
MSL
hPa
Rain
since 9 am
mm
Dir
 
Spd
km/h
Gust
km/h
Spd
kts
Gust
kts
31/11:30pm - - - - - NNE 20 33 11 18 - - -
31/11:00pm - - - - - NNE 26 37 14 20 - - -
31/10:30pm - - - - - NNE 19 26 10 14 - - -
31/10:00pm - - - - - N 17 26 9 14 - - -
31/09:30pm - - - - - N 15 20 8 11 - - -
31/09:00pm - - - - - NNE 19 28 10 15 - - -
31/08:30pm - - - - - NNE 19 30 10 16 - - -
31/08:00pm - - - - - NNE 20 30 11 16 - - -
31/07:30pm - - - - - NNE 17 24 9 13 - - -
31/07:00pm - - - - - NNE 20 32 11 17 - - -
31/06:30pm - - - - - NNE 20 33 11 18 - - -
31/06:00pm - - - - - NNE 22 32 12 17 - - -
31/05:30pm - - - - - N 22 35 12 19 - - -
31/05:00pm - - - - - N 20 33 11 18 - - -
31/04:30pm - - - - - N 28 37 15 20 - - -
31/04:02pm - - - - - N 30 48 16 26 - - -
31/04:00pm - - - - - N 32 48 17 26 - - -
31/03:30pm - - - - - N 30 50 16 27 - - -
31/03:26pm - - - - - N 30 50 16 27 - - -
31/03:00pm - - - - - N 32 43 17 23 - - -
31/02:30pm - - - - - NNW 33 50 18 27 - - -
31/02:00pm - - - - - N 32 43 17 23 - - -
31/01:30pm - - - - - N 33 44 18 24 - - -
31/01:00pm - - - - - N 35 48 19 26 - - -
31/12:30pm - - - - - N 33 50 18 27 - - -
31/12:25pm - - - - - N 30 50 16 27 - - -
31/12:00pm - - - - - N 28 41 15 22 - - -
31/11:30am - - - - - N 28 39 15 21 - - -
31/11:18am - - - - - N 28 46 15 25 - - -
31/11:00am - - - - - N 26 39 14 21 - - -
31/10:30am - - - - - N 30 43 16 23 - - -
31/10:00am - - - - - N 26 37 14 20 - - -
31/09:30am - - - - - N 24 35 13 19 - - -
31/09:00am - - - - - NNE 22 35 12 19 - - -
31/08:30am - - - - - NNE 20 32 11 17 - - -
31/08:00am - - - - - NNE 20 30 11 16 - - -
31/07:30am - - - - - NNE 20 30 11 16 - - -
31/07:00am - - - - - N 20 26 11 14 - - -
31/06:30am - - - - - NNE 19 26 10 14 - - -
31/06:00am - - - - - NNE 19 26 10 14 - - -
31/05:30am - - - - - NNE 19 28 10 15 - - -
31/05:00am - - - - - NNE 17 22 9 12 - - -
31/04:30am - - - - - NNE 17 22 9 12 - - -
31/04:00am - - - - - NNE 15 22 8 12 - - -
31/03:30am - - - - - NNE 17 22 9 12 - - -
31/03:00am - - - - - NNE 15 20 8 11 - - -
31/02:30am - - - - - NNE 17 22 9 12 - - -
31/02:00am - - - - - NNE 15 20 8 11 - - -
31/01:30am - - - - - NNE 17 22 9 12 - - -
31/01:00am - - - - - NNE 15 20 8 11 - - -
31/12:30am - - - - - NNE 17 20 9 11 - - -
31/12:00am - - - - - NNE 15 20 8 11 - - -
 
Date/Time
EST
Temp
°C
App
Temp
°C
Dew
Point
Rel
Hum
%
Delta-T
°C
Wind Press
QNH
hPa
Press
MSL
hPa
Rain
since 9 am
mm
Dir
 
Spd
km/h
Gust
km/h
Spd
kts
Gust
kts
30/11:30pm - - - - - NNE 15 22 8 12 - - -
30/11:00pm - - - - - NNE 13 19 7 10 - - -
30/10:30pm - - - - - NNE 13 15 7 8 - - -
30/10:00pm - - - - - NNE 11 13 6 7 - - -
30/09:30pm - - - - - NNE 11 13 6 7 - - -
30/09:00pm - - - - - NNE 7 11 4 6 - - -
30/08:30pm - - - - - NNE 9 13 5 7 - - -
30/08:00pm - - - - - NNE 9 13 5 7 - - -
30/07:30pm - - - - - N 11 17 6 9 - - -
30/07:00pm - - - - - NNE 13 20 7 11 - - -
30/06:30pm - - - - - NNE 11 17 6 9 - - -
30/06:00pm - - - - - N 15 22 8 12 - - -
30/05:30pm - - - - - N 17 24 9 13 - - -
30/05:00pm - - - - - N 17 24 9 13 - - -
30/04:30pm - - - - - N 19 26 10 14 - - -
30/04:00pm - - - - - NNE 19 30 10 16 - - -
30/03:30pm - - - - - N 20 33 11 18 - - -
30/03:00pm - - - - - N 20 33 11 18 - - -

Other Formats:

Comma delimited format used in spreadsheet applications
http://www.bom.gov.au/fwo/IDV60801/IDV60801.95864.axf

JavaScript Object Notation format (JSON) in row-major order
http://www.bom.gov.au/fwo/IDV60801/IDV60801.95864.json